Time;durP1;ratioP1;P1;durP2;ratioP2;P2;SDS_P1;SDS_P2;PMS_P1;PMS_P2;Temp;Humidity;BMP_temperature;BMP_pressure;BME280_temperature;BME280_humidity;BME280_pressure;Samples;Min_cycle;Max_cycle;Signal;HPM_P1;HPM_P2
2022/04/25 00:01:44;;;;;;;0.63;0.63;;;5.50;99.90;5.10;95526.00;;;;4955857;29;20220;-85
2022/04/25 00:04:12;;;;;;;0.60;0.60;;;5.50;99.90;5.50;95528.00;;;;4952777;29;20234;-84
2022/04/25 00:06:41;;;;;;;0.73;0.53;;;5.40;99.90;5.50;95541.00;;;;4955486;29;20219;-85
2022/04/25 00:09:11;;;;;;;0.40;0.40;;;5.50;99.90;5.30;95539.00;;;;4955799;29;20280;-85
2022/04/25 00:11:40;;;;;;;2.03;0.70;;;5.50;99.90;5.30;95542.00;;;;4955731;29;20308;-85
2022/04/25 00:14:09;;;;;;;0.63;0.63;;;5.40;99.90;5.20;95540.00;;;;4955337;29;20411;-85
2022/04/25 00:16:37;;;;;;;0.40;0.40;;;5.40;99.90;5.40;95544.00;;;;4963391;28;20232;-84
2022/04/25 00:19:06;;;;;;;0.40;0.40;;;5.40;99.90;5.40;95541.00;;;;4956157;29;20184;-84
2022/04/25 00:21:34;;;;;;;0.90;0.70;;;5.40;99.90;5.20;95537.00;;;;4956201;29;20247;-86
2022/04/25 00:24:03;;;;;;;0.80;0.50;;;5.40;99.90;4.90;95549.00;;;;4956013;29;20223;-83
2022/04/25 00:26:33;;;;;;;1.07;0.67;;;5.30;99.90;4.90;95548.00;;;;4955691;29;20206;-86
2022/04/25 00:29:02;;;;;;;0.55;0.55;;;5.20;99.90;5.10;95541.00;;;;4954137;28;20477;-84
2022/04/25 00:31:30;;;;;;;0.73;0.70;;;5.20;99.90;5.10;95551.00;;;;4958546;29;20220;-85
2022/04/25 00:33:59;;;;;;;0.40;0.40;;;5.20;99.90;5.20;95545.00;;;;4955298;29;20232;-86
2022/04/25 00:36:28;;;;;;;1.27;0.67;;;5.20;99.90;5.00;95546.00;;;;4955383;29;20200;-84
2022/04/25 00:38:56;;;;;;;2.07;0.40;;;5.20;99.90;4.70;95536.00;;;;4955290;29;20196;-85
2022/04/25 00:41:25;;;;;;;0.50;0.50;;;5.10;99.90;4.70;95544.00;;;;4955293;29;20215;-86
2022/04/25 00:43:57;;;;;;;0.77;0.60;;;5.00;99.90;4.70;95548.00;;;;4956069;29;20283;-83
2022/04/25 00:46:27;;;;;;;0.50;0.50;;;5.00;99.90;4.90;95540.00;;;;4956470;29;20196;-83
2022/04/25 00:48:56;;;;;;;1.00;0.75;;;5.00;99.90;4.80;95546.00;;;;4953896;29;20959;-84
2022/04/25 00:51:26;;;;;;;0.93;0.60;;;5.00;99.90;4.60;95545.00;;;;4954359;29;20215;-84
2022/04/25 00:53:55;;;;;;;0.50;0.50;;;4.90;99.90;4.50;95537.00;;;;4955372;29;20243;-85
2022/04/25 00:56:26;;;;;;;0.50;0.50;;;4.90;99.90;4.10;95537.00;;;;4955670;29;20200;-84
2022/04/25 00:58:56;;;;;;;1.67;0.77;;;4.80;99.90;4.20;95546.00;;;;4955119;29;20267;-84
2022/04/25 01:01:26;;;;;;;0.40;0.40;;;4.70;99.90;4.10;95534.00;;;;4954660;29;20216;-84
2022/04/25 01:03:55;;;;;;;0.60;0.60;;;4.60;99.90;4.50;95550.00;;;;4954988;29;20483;-86
2022/04/25 01:06:24;;;;;;;0.60;0.60;;;4.60;99.90;4.40;95550.00;;;;4953624;29;20525;-82
2022/04/25 01:08:52;;;;;;;0.93;0.40;;;4.60;99.90;4.40;95553.00;;;;4953794;29;20473;-84
2022/04/25 01:11:22;;;;;;;0.40;0.40;;;4.60;99.90;4.30;95548.00;;;;4954824;29;20216;-85
2022/04/25 01:13:50;;;;;;;0.40;0.40;;;4.60;99.90;4.60;95555.00;;;;4954766;29;20290;-83
2022/04/25 01:16:20;;;;;;;0.40;0.40;;;4.60;99.90;4.80;95546.00;;;;4962276;28;20246;-86
2022/04/25 01:18:49;;;;;;;0.77;0.40;;;4.70;99.90;4.80;95552.00;;;;4953647;28;20210;-86
2022/04/25 01:21:21;;;;;;;0.90;0.90;;;4.70;99.90;4.80;95550.00;;;;4952485;29;20410;-87
2022/04/25 01:29:24;;;;;;;3.80;0.90;;;4.80;99.90;4.50;95550.00;;;;4954357;29;20234;-85
2022/04/25 01:31:52;;;;;;;0.60;0.60;;;4.80;99.90;4.70;95553.00;;;;4953820;29;20216;-86
2022/04/25 01:34:21;;;;;;;0.57;0.57;;;4.80;99.90;4.70;95552.00;;;;4954701;29;20454;-83
2022/04/25 01:36:50;;;;;;;0.67;0.60;;;4.80;99.90;4.80;95558.00;;;;4954039;29;20199;-84
2022/04/25 01:39:19;;;;;;;0.60;0.47;;;4.90;99.90;4.80;95556.00;;;;4954012;28;20435;-85
2022/04/25 01:41:48;;;;;;;0.50;0.40;;;4.90;99.90;4.90;95553.00;;;;4953276;29;20459;-86
2022/04/25 01:44:17;;;;;;;0.63;0.63;;;4.90;99.90;5.00;95564.00;;;;4954641;29;20463;-85
2022/04/25 01:46:45;;;;;;;0.30;0.30;;;4.90;99.90;5.20;95560.00;;;;4953857;29;20203;-84
2022/04/25 01:49:14;;;;;;;0.83;0.60;;;5.00;99.90;5.30;95553.00;;;;4953790;29;20247;-85
2022/04/25 01:51:42;;;;;;;0.60;0.47;;;5.00;99.90;5.10;95548.00;;;;4953235;29;20466;-83
2022/04/25 01:54:11;;;;;;;0.40;0.40;;;5.10;99.90;5.10;95546.00;;;;4953539;29;20210;-83
2022/04/25 01:56:41;;;;;;;0.60;0.40;;;5.10;99.90;5.00;95538.00;;;;4953823;29;20200;-85
2022/04/25 01:59:10;;;;;;;0.63;0.60;;;5.10;99.90;5.10;95542.00;;;;4953466;29;20204;-85
2022/04/25 02:01:38;;;;;;;1.60;0.60;;;5.10;99.90;5.20;95551.00;;;;4952971;29;20216;-84
2022/04/25 02:04:07;;;;;;;0.50;0.43;;;5.10;99.90;5.20;95551.00;;;;4954484;29;20199;-86
2022/04/25 02:06:36;;;;;;;0.50;0.50;;;5.10;99.90;5.40;95552.00;;;;4951861;29;20418;-84
2022/04/25 02:09:05;;;;;;;3.70;0.60;;;5.20;99.90;5.40;95553.00;;;;4952986;28;20227;-86
2022/04/25 02:11:34;;;;;;;0.40;0.40;;;5.30;99.90;5.50;95553.00;;;;4953401;29;20251;-86
2022/04/25 02:14:04;;;;;;;0.43;0.43;;;5.30;99.90;5.50;95561.00;;;;4954239;29;20206;-84
2022/04/25 02:16:33;;;;;;;0.50;0.50;;;5.40;99.90;5.20;95569.00;;;;4963985;28;20203;-86
2022/04/25 02:19:02;;;;;;;0.50;0.50;;;5.40;99.90;4.80;95561.00;;;;4943837;29;20200;-85
2022/04/25 02:21:30;;;;;;;0.50;0.50;;;5.30;99.90;4.90;95562.00;;;;4954007;29;20235;-83
2022/04/25 02:23:59;;;;;;;0.73;0.53;;;5.20;99.90;5.00;95563.00;;;;4954396;29;20209;-86
2022/04/25 02:26:28;;;;;;;0.60;0.50;;;5.20;99.90;5.10;95572.00;;;;4953571;29;20251;-84
2022/04/25 02:28:56;;;;;;;0.57;0.57;;;5.20;99.90;5.20;95572.00;;;;4952327;29;20207;-84
2022/04/25 02:31:26;;;;;;;6.87;0.77;;;5.20;99.90;5.40;95568.00;;;;4952684;29;20220;-84
2022/04/25 02:33:55;;;;;;;1.13;0.60;;;5.20;99.90;5.40;95560.00;;;;4954061;29;20215;-83
2022/04/25 02:36:24;;;;;;;0.63;0.63;;;5.30;99.90;5.50;95563.00;;;;4953650;29;20215;-85
2022/04/25 02:38:53;;;;;;;1.70;0.73;;;5.30;99.90;5.40;95564.00;;;;4953369;29;20196;-85
2022/04/25 02:41:22;;;;;;;0.50;0.50;;;5.30;99.90;5.20;95560.00;;;;4953482;29;20215;-86
2022/04/25 02:43:50;;;;;;;2.10;0.70;;;5.30;99.90;5.20;95570.00;;;;4954071;29;20232;-84
2022/04/25 02:46:19;;;;;;;0.93;0.60;;;5.30;99.90;5.10;95574.00;;;;4953375;29;20307;-84
2022/04/25 02:48:50;;;;;;;1.00;0.70;;;5.30;99.90;5.20;95556.00;;;;4952361;29;20204;-85
2022/04/25 02:51:19;;;;;;;0.50;0.50;;;5.20;99.90;5.30;95573.00;;;;4952621;28;20216;-85
2022/04/25 02:53:47;;;;;;;0.53;0.53;;;5.30;99.90;5.30;95576.00;;;;4956612;29;20204;-85
2022/04/25 02:56:16;;;;;;;0.40;0.40;;;5.30;99.90;5.30;95580.00;;;;4956680;29;20204;-85
2022/04/25 02:58:44;;;;;;;0.60;0.60;;;5.20;99.90;5.40;95578.00;;;;4956072;29;20220;-85
2022/04/25 03:01:13;;;;;;;1.67;0.80;;;5.20;99.90;5.40;95579.00;;;;4955268;29;20247;-84
2022/04/25 03:03:42;;;;;;;0.50;0.50;;;5.30;99.90;5.30;95576.00;;;;4956920;29;20200;-86
2022/04/25 03:06:12;;;;;;;1.13;0.50;;;5.30;99.90;5.20;95585.00;;;;4955815;29;20219;-86
2022/04/25 03:08:41;;;;;;;0.43;0.43;;;5.30;99.90;5.50;95587.00;;;;4955425;29;20196;-85
2022/04/25 03:11:10;;;;;;;0.57;0.57;;;5.30;99.90;5.30;95593.00;;;;4956963;29;20228;-84
2022/04/25 03:13:39;;;;;;;0.30;0.30;;;5.20;99.90;5.60;95592.00;;;;4958136;29;20210;-84
2022/04/25 03:16:09;;;;;;;0.73;0.73;;;5.20;99.90;5.60;95599.00;;;;4964536;28;20202;-85
2022/04/25 03:18:38;;;;;;;0.67;0.47;;;5.20;99.90;5.70;95601.00;;;;4957272;29;20196;-87
2022/04/25 03:21:07;;;;;;;1.80;1.70;;;5.30;99.90;5.50;95602.00;;;;4957659;28;20216;-87
2022/04/25 03:23:37;;;;;;;1.37;1.23;;;5.20;99.90;5.40;95600.00;;;;4944395;29;20196;-85
2022/04/25 03:26:07;;;;;;;1.33;0.63;;;5.20;99.90;5.20;95602.00;;;;4958063;29;20341;-87
2022/04/25 03:28:35;;;;;;;0.60;0.60;;;5.20;99.90;5.20;95599.00;;;;4958177;29;20199;-87
2022/04/25 03:31:07;;;;;;;1.03;0.73;;;5.10;99.90;5.30;95597.00;;;;4957859;29;20228;-84
2022/04/25 03:33:36;;;;;;;0.57;0.57;;;5.10;99.90;5.60;95598.00;;;;4954837;28;20463;-87
2022/04/25 03:36:06;;;;;;;4.53;0.43;;;5.10;99.90;5.40;95591.00;;;;4957015;28;20204;-86
2022/04/25 03:38:36;;;;;;;0.73;0.73;;;5.10;99.90;5.10;95597.00;;;;4957880;29;20447;-85
2022/04/25 03:41:05;;;;;;;1.10;0.70;;;5.00;99.90;5.20;95602.00;;;;4960514;29;20228;-85
2022/04/25 03:43:34;;;;;;;2.00;0.60;;;5.00;99.90;5.20;95604.00;;;;4958495;29;20665;-86
2022/04/25 03:46:03;;;;;;;0.40;0.33;;;5.00;99.90;5.00;95602.00;;;;4957681;29;20280;-87
2022/04/25 03:48:31;;;;;;;0.60;0.60;;;4.90;99.90;5.10;95615.00;;;;4958303;29;20196;-87
2022/04/25 03:51:00;;;;;;;2.87;0.80;;;4.90;99.90;5.30;95622.00;;;;4956824;29;20310;-86
2022/04/25 03:53:29;;;;;;;0.83;0.47;;;4.90;99.90;5.30;95622.00;;;;4957533;29;20271;-82
2022/04/25 03:58:45;;;;;;;0.40;0.40;;;4.90;99.90;4.70;95623.00;;;;4957948;29;20200;-84
2022/04/25 04:01:13;;;;;;;0.60;0.60;;;4.90;99.90;4.70;95632.00;;;;4953832;29;20240;-85
2022/04/25 04:03:42;;;;;;;0.70;0.70;;;4.80;99.90;5.00;95622.00;;;;4957270;28;20446;-86
2022/04/25 04:06:12;;;;;;;1.57;0.90;;;4.80;99.90;5.50;95629.00;;;;4956543;29;20496;-87
2022/04/25 04:08:41;;;;;;;0.60;0.60;;;4.90;99.90;5.60;95632.00;;;;4952229;29;20243;-85
2022/04/25 04:11:11;;;;;;;0.70;0.70;;;4.90;99.90;5.70;95635.00;;;;4956790;28;20459;-85
2022/04/25 04:13:40;;;;;;;0.73;0.73;;;5.00;99.90;5.50;95632.00;;;;4972030;23;20482;-71
2022/04/25 04:16:08;;;;;;;0.50;0.50;;;5.10;99.90;5.50;95630.00;;;;4971132;28;20316;-70
2022/04/25 04:18:41;;;;;;;0.60;0.50;;;5.20;99.90;5.50;95638.00;;;;4964969;28;20219;-70
2022/04/25 04:21:11;;;;;;;5.43;0.87;;;5.20;99.90;5.40;95633.00;;;;4966331;28;20196;-69
2022/04/25 04:23:39;;;;;;;0.47;0.47;;;5.20;99.90;5.40;95635.00;;;;4952484;28;20200;-69
2022/04/25 04:26:08;;;;;;;0.50;0.50;;;5.20;99.90;5.20;95646.00;;;;4953881;28;20204;-69
2022/04/25 04:28:38;;;;;;;0.90;0.80;;;5.10;99.90;4.90;95641.00;;;;4953052;28;20222;-69
2022/04/25 04:31:06;;;;;;;0.73;0.70;;;5.10;99.90;5.20;95645.00;;;;4953614;28;20196;-70
2022/04/25 04:33:35;;;;;;;0.50;0.50;;;5.10;99.90;5.80;95645.00;;;;4970908;28;21013;-70
2022/04/25 04:36:19;;;;;;;0.93;0.50;;;5.20;99.90;5.90;95668.00;;;;4972527;28;20208;-70
2022/04/25 04:38:48;;;;;;;0.70;0.60;;;5.30;99.90;6.10;95674.00;;;;4954268;28;20274;-70
2022/04/25 04:41:16;;;;;;;0.47;0.47;;;5.40;99.90;6.20;95676.00;;;;4953358;28;20274;-70
2022/04/25 04:43:46;;;;;;;0.70;0.67;;;5.50;99.90;6.20;95674.00;;;;4953368;28;20215;-70
2022/04/25 04:46:15;;;;;;;1.87;0.77;;;5.60;99.90;6.00;95678.00;;;;4952899;28;20243;-70
2022/04/25 04:48:43;;;;;;;1.17;0.77;;;5.70;99.90;5.80;95681.00;;;;4952859;28;20220;-70
2022/04/25 04:51:12;;;;;;;1.40;0.70;;;5.60;99.90;5.80;95688.00;;;;4953275;28;20200;-70
2022/04/25 04:53:41;;;;;;;0.80;0.80;;;5.60;99.90;5.90;95687.00;;;;4963625;28;20195;-70
2022/04/25 04:56:09;;;;;;;0.80;0.57;;;5.60;99.90;6.00;95691.00;;;;4971234;28;20191;-70
2022/04/25 04:58:40;;;;;;;0.60;0.60;;;5.50;99.90;6.20;95694.00;;;;4964247;28;20230;-71
2022/04/25 05:01:10;;;;;;;2.47;1.10;;;5.60;99.90;6.30;95698.00;;;;4964779;28;20195;-70
2022/04/25 05:03:41;;;;;;;1.50;0.70;;;5.60;99.90;6.30;95706.00;;;;4969131;28;20227;-70
2022/04/25 05:06:10;;;;;;;0.60;0.60;;;5.70;99.90;6.30;95699.00;;;;4970482;28;20199;-70
2022/04/25 05:08:38;;;;;;;0.50;0.50;;;5.70;99.90;6.40;95703.00;;;;4969789;28;20227;-70
2022/04/25 05:11:08;;;;;;;0.63;0.63;;;5.80;99.90;6.40;95701.00;;;;4971896;28;20250;-70
2022/04/25 05:13:37;;;;;;;0.80;0.60;;;5.90;99.90;6.60;95698.00;;;;4970957;28;20234;-70
2022/04/25 05:16:07;;;;;;;0.70;0.70;;;5.90;99.90;6.60;95709.00;;;;4968305;28;20199;-70
2022/04/25 05:18:37;;;;;;;0.77;0.60;;;6.10;99.90;6.60;95715.00;;;;4958253;28;20223;-70
2022/04/25 05:21:06;;;;;;;2.30;1.75;;;6.10;99.90;6.60;95711.00;;;;4955125;28;20417;-70
2022/04/25 05:23:35;;;;;;;3.40;1.80;;;6.10;99.90;6.80;95711.00;;;;4961192;28;20199;-70
2022/04/25 05:26:05;;;;;;;3.00;2.17;;;6.10;99.90;6.70;95723.00;;;;4967945;28;20203;-70
2022/04/25 05:28:33;;;;;;;5.47;2.80;;;6.20;99.90;6.60;95719.00;;;;4968803;28;20318;-69
2022/04/25 05:31:02;;;;;;;2.17;1.53;;;6.20;99.90;6.30;95730.00;;;;4969856;28;20198;-69
2022/04/25 05:33:30;;;;;;;2.07;1.40;;;6.20;99.90;6.30;95726.00;;;;4971140;28;20213;-69
2022/04/25 05:36:00;;;;;;;5.57;2.57;;;6.10;99.90;6.10;95725.00;;;;4968346;28;20286;-70
2022/04/25 05:38:29;;;;;;;4.50;3.53;;;6.10;99.90;6.40;95724.00;;;;4969619;28;20227;-70
2022/04/25 05:40:58;;;;;;;5.03;3.63;;;6.10;99.90;6.60;95725.00;;;;4974430;28;20199;-70
2022/04/25 05:43:26;;;;;;;4.80;3.80;;;6.10;99.90;6.90;95733.00;;;;4971326;28;20250;-70
2022/04/25 05:45:55;;;;;;;3.10;2.30;;;6.20;99.90;7.00;95732.00;;;;4968706;28;20207;-70
2022/04/25 05:53:57;;;;;;;2.03;1.70;;;6.40;99.90;6.90;95747.00;;;;4970460;28;20226;-70
2022/04/25 05:56:26;;;;;;;5.30;2.70;;;6.50;99.90;7.10;95748.00;;;;4970022;28;20199;-70
2022/04/25 05:58:54;;;;;;;2.70;2.10;;;6.50;99.90;7.20;95749.00;;;;4970324;28;20243;-70
2022/04/25 06:01:23;;;;;;;2.20;2.00;;;6.60;99.90;7.30;95743.00;;;;4970879;28;20218;-70
2022/04/25 06:03:51;;;;;;;1.80;1.70;;;6.70;99.90;7.20;95742.00;;;;4979467;28;20312;-70
2022/04/25 06:06:23;;;;;;;1.87;1.37;;;6.70;99.90;7.30;95753.00;;;;4966357;28;20203;-70
2022/04/25 06:08:52;;;;;;;1.80;1.17;;;6.80;99.90;7.60;95754.00;;;;4966396;28;20270;-70
2022/04/25 06:11:22;;;;;;;2.53;1.17;;;6.80;99.90;7.70;95757.00;;;;4967389;28;20420;-70
2022/04/25 06:13:52;;;;;;;1.97;1.40;;;7.00;99.90;7.90;95755.00;;;;4967267;28;20211;-70
2022/04/25 06:16:20;;;;;;;3.33;2.47;;;7.10;99.90;7.90;95758.00;;;;4965318;28;20204;-70
2022/04/25 06:18:49;;;;;;;2.73;2.53;;;7.20;99.90;8.00;95770.00;;;;4966288;28;20226;-70
2022/04/25 06:21:17;;;;;;;4.20;3.80;;;7.30;99.90;8.20;95767.00;;;;4970891;28;20210;-70
2022/04/25 06:23:47;;;;;;;2.53;2.33;;;7.40;99.90;8.20;95764.00;;;;4971193;28;20230;-70
2022/04/25 06:26:16;;;;;;;3.03;1.87;;;7.40;99.90;7.90;95768.00;;;;4970079;28;20278;-70
2022/04/25 06:28:44;;;;;;;2.70;0.80;;;8.30;99.90;7.90;95771.00;;;;4970579;28;20227;-70
2022/04/25 06:31:13;;;;;;;1.17;1.07;;;7.50;99.90;8.00;95767.00;;;;4971059;28;20205;-70
2022/04/25 06:33:42;;;;;;;1.70;1.27;;;7.50;99.90;8.40;95779.00;;;;4956299;28;20413;-70
2022/04/25 06:36:11;;;;;;;2.75;1.20;;;7.60;99.90;8.60;95772.00;;;;4961800;28;20412;-70
2022/04/25 06:38:39;;;;;;;2.43;1.27;;;7.70;99.90;8.60;95781.00;;;;4968679;28;20489;-70
2022/04/25 06:41:09;;;;;;;2.08;1.15;;;7.90;99.90;8.90;95775.00;;;;4969692;28;20404;-70
2022/04/25 06:43:38;;;;;;;2.00;1.60;;;8.00;99.90;9.10;95778.00;;;;4970094;28;20400;-70
2022/04/25 06:46:06;;;;;;;2.80;1.38;;;8.10;99.90;9.40;95776.00;;;;4969599;28;20400;-70
2022/04/25 06:48:35;;;;;;;2.37;1.60;;;8.30;99.90;9.40;95785.00;;;;4969041;28;20466;-70
2022/04/25 06:51:04;;;;;;;1.77;1.27;;;8.50;99.90;9.50;95789.00;;;;4968929;28;20407;-70
2022/04/25 06:53:33;;;;;;;2.80;2.15;;;8.60;99.90;9.60;95793.00;;;;4969805;28;20491;-70
2022/04/25 06:56:01;;;;;;;4.70;1.70;;;8.70;99.90;9.90;95808.00;;;;4966720;28;20400;-70
2022/04/25 06:58:31;;;;;;;2.33;1.10;;;8.90;99.90;9.90;95809.00;;;;4966451;28;20424;-70
2022/04/25 07:01:00;;;;;;;2.22;1.20;;;9.00;99.90;9.90;95804.00;;;;4963221;28;20400;-70
2022/04/25 07:03:31;;;;;;;2.97;1.83;;;9.10;99.90;10.30;95801.00;;;;4969094;28;20466;-70
2022/04/25 07:06:00;;;;;;;2.28;1.70;;;9.20;99.90;10.30;95807.00;;;;4969418;28;20476;-70
2022/04/25 07:08:28;;;;;;;5.33;1.60;;;9.40;99.90;10.60;95814.00;;;;4964497;28;20236;-70
2022/04/25 07:10:57;;;;;;;2.53;1.27;;;9.60;99.90;11.00;95810.00;;;;4970270;28;20191;-70
2022/04/25 07:13:25;;;;;;;2.00;1.63;;;9.70;99.90;11.20;95816.00;;;;4957814;28;20211;-71
2022/04/25 07:15:55;;;;;;;5.45;2.15;;;9.90;99.90;11.40;95817.00;;;;4968256;28;20400;-70
2022/04/25 07:18:24;;;;;;;5.28;1.95;;;10.10;99.90;11.50;95817.00;;;;4953700;28;20523;-70
2022/04/25 07:20:52;;;;;;;4.25;2.15;;;10.20;99.90;11.70;95809.00;;;;4969024;28;20397;-70
2022/04/25 07:28:57;;;;;;;3.03;1.57;;;10.80;99.90;12.40;95815.00;;;;4970141;28;20219;-70
2022/04/25 07:31:27;;;;;;;3.17;1.70;;;11.00;99.90;12.60;95825.00;;;;4970128;28;20207;-71
2022/04/25 07:33:59;;;;;;;4.30;1.87;;;11.20;99.90;12.70;95825.00;;;;4954637;28;20222;-70
2022/04/25 07:36:27;;;;;;;4.93;1.77;;;11.40;99.90;13.10;95822.00;;;;4964815;28;20203;-71
2022/04/25 07:38:56;;;;;;;4.90;1.50;;;11.60;99.90;13.30;95824.00;;;;4971579;28;20239;-70
2022/04/25 07:41:27;;;;;;;1.03;0.80;;;11.80;99.90;13.20;95822.00;;;;4973926;28;20203;-70
2022/04/25 07:43:56;;;;;;;5.60;1.63;;;12.00;99.90;13.30;95818.00;;;;4973016;28;20211;-70
2022/04/25 07:46:26;;;;;;;2.40;1.90;;;12.20;99.90;13.40;95813.00;;;;4972989;28;20282;-70
2022/04/25 07:48:55;;;;;;;10.00;1.57;;;12.30;99.90;13.80;95822.00;;;;4972266;28;20227;-70
2022/04/25 07:51:23;;;;;;;6.07;1.23;;;12.40;99.90;13.90;95819.00;;;;4961815;28;20222;-70
2022/04/25 07:53:52;;;;;;;5.20;1.27;;;12.60;99.90;14.30;95827.00;;;;4954449;28;20200;-70
2022/04/25 07:56:21;;;;;;;2.50;1.60;;;12.80;99.90;14.50;95832.00;;;;4954223;28;20309;-70
2022/04/25 07:58:49;;;;;;;6.93;1.57;;;12.90;99.90;14.50;95826.00;;;;4953131;28;20220;-70
2022/04/25 08:01:18;;;;;;;3.50;1.40;;;13.00;99.90;14.50;95836.00;;;;4953890;28;20227;-71
2022/04/25 08:03:48;;;;;;;5.03;1.60;;;13.20;99.90;14.50;95838.00;;;;4961056;28;20199;-71
2022/04/25 08:06:20;;;;;;;2.80;1.30;;;13.30;99.90;14.70;95841.00;;;;4973262;28;20230;-70
2022/04/25 08:08:49;;;;;;;5.70;1.53;;;13.40;99.90;15.00;95839.00;;;;4959492;28;20242;-70
2022/04/25 08:11:18;;;;;;;2.97;1.40;;;13.50;99.90;15.10;95849.00;;;;4963858;28;20195;-70
2022/04/25 08:19:22;;;;;;;4.83;2.10;;;13.90;99.90;15.10;95850.00;;;;4965320;28;20234;-70
2022/04/25 08:21:52;;;;;;;4.53;1.40;;;14.00;99.90;15.30;95853.00;;;;4973045;28;20215;-70
2022/04/25 08:24:21;;;;;;;1.70;0.80;;;14.00;99.90;15.60;95849.00;;;;4973411;28;20230;-70
2022/04/25 08:26:49;;;;;;;2.73;1.03;;;14.10;99.90;15.90;95849.00;;;;4972583;28;20254;-71
2022/04/25 08:29:18;;;;;;;2.33;1.03;;;14.30;99.90;15.80;95857.00;;;;4971811;28;20218;-70
2022/04/25 08:31:46;;;;;;;3.23;0.90;;;14.40;99.90;15.90;95861.00;;;;4965934;28;20199;-71
2022/04/25 08:34:15;;;;;;;2.63;1.70;;;14.50;99.90;15.90;95860.00;;;;4971088;28;20282;-70
2022/04/25 08:36:45;;;;;;;4.77;1.30;;;14.60;99.90;16.10;95864.00;;;;4972104;28;20199;-71
2022/04/25 08:39:14;;;;;;;1.90;1.30;;;14.70;99.90;16.40;95850.00;;;;4967063;28;20216;-71
2022/04/25 08:41:47;;;;;;;1.70;1.17;;;14.90;99.90;16.90;95857.00;;;;4959184;28;20193;-71
2022/04/25 08:44:18;;;;;;;1.33;1.17;;;15.10;99.90;17.10;95862.00;;;;4959971;28;20207;-71
2022/04/25 08:46:50;;;;;;;1.90;1.00;;;15.40;99.90;17.10;95863.00;;;;4971874;28;20204;-71
2022/04/25 08:49:20;;;;;;;3.07;2.20;;;15.60;99.90;17.10;95867.00;;;;4972107;28;20289;-71
2022/04/25 08:51:58;;;;;;;5.77;2.70;;;15.60;99.90;17.40;95862.00;;;;4971972;28;20203;-70
2022/04/25 08:54:29;;;;;;;3.23;1.03;;;15.80;99.10;17.50;95874.00;;;;4972640;28;20218;-71
2022/04/25 08:57:00;;;;;;;3.23;1.57;;;16.00;98.00;17.50;95863.00;;;;4971964;28;20195;-71
2022/04/25 08:59:28;;;;;;;1.13;0.70;;;16.10;96.90;17.20;95866.00;;;;4972285;28;20251;-70
2022/04/25 09:01:57;;;;;;;2.90;2.10;;;16.00;93.80;17.30;95873.00;;;;4971653;28;20207;-70
2022/04/25 09:04:26;;;;;;;0.80;0.80;;;16.00;93.80;17.50;95871.00;;;;4972733;28;20203;-70
2022/04/25 09:06:56;;;;;;;1.40;1.30;;;16.10;93.70;17.40;95872.00;;;;4971663;28;20192;-70
2022/04/25 09:09:25;;;;;;;1.30;1.20;;;16.10;93.20;17.30;95876.00;;;;4966761;28;20192;-70
2022/04/25 09:14:47;;;;;;;2.13;0.63;;;16.10;91.30;17.70;95884.00;;;;4953786;28;20239;-71
2022/04/25 09:17:23;;;;;;;0.90;0.60;;;16.20;91.30;17.80;95879.00;;;;4970626;28;20273;-71
2022/04/25 09:19:52;;;;;;;1.50;1.07;;;16.30;91.10;18.20;95878.00;;;;4969592;28;20246;-71
2022/04/25 09:22:33;;;;;;;0.97;0.50;;;16.50;90.60;18.20;95884.00;;;;4971319;28;20202;-71
2022/04/25 09:25:07;;;;;;;0.40;0.40;;;16.60;90.00;18.30;95874.00;;;;4969580;28;20199;-71
2022/04/25 09:28:09;;;;;;;1.03;0.50;;;16.80;88.90;19.20;95866.00;;;;4968981;28;20219;-71
2022/04/25 09:30:38;;;;;;;1.70;0.43;;;17.20;87.40;18.80;95880.00;;;;4971733;28;20250;-70
2022/04/25 09:33:23;;;;;;;0.60;0.60;;;17.30;83.40;18.90;95885.00;;;;4963444;28;20287;-70
2022/04/25 09:35:56;;;;;;;0.50;0.40;;;17.30;82.80;19.00;95886.00;;;;4961235;28;20230;-70
2022/04/25 09:38:34;;;;;;;2.53;0.60;;;17.40;82.60;18.50;95890.00;;;;4971263;28;20225;-71
2022/04/25 09:41:04;;;;;;;0.30;0.20;;;17.40;80.50;18.50;95880.00;;;;4972201;28;20201;-71
2022/04/25 09:43:34;;;;;;;0.63;0.40;;;17.40;76.80;18.40;95879.00;;;;4965297;28;20194;-71
2022/04/25 09:46:05;;;;;;;0.37;0.30;;;17.30;76.90;19.10;95887.00;;;;4969626;28;20620;-71
2022/04/25 09:48:34;;;;;;;1.10;0.40;;;17.40;76.40;19.20;95878.00;;;;4969882;28;20219;-70
2022/04/25 09:51:06;;;;;;;0.60;0.40;;;17.50;75.30;19.40;95886.00;;;;4967962;28;20199;-71
2022/04/25 09:53:44;;;;;;;2.23;0.33;;;17.60;76.20;19.40;95896.00;;;;4967879;28;20196;-71
2022/04/25 09:56:18;;;;;;;2.60;0.60;;;17.80;75.60;18.90;95894.00;;;;4968784;28;20202;-71
2022/04/25 09:59:00;;;;;;;0.30;0.30;;;17.80;72.30;19.00;95895.00;;;;4969352;28;20220;-71
2022/04/25 10:01:30;;;;;;;1.43;0.43;;;17.70;70.00;19.30;95889.00;;;;4965716;28;20195;-70
2022/04/25 10:03:59;;;;;;;1.13;0.43;;;17.70;71.60;19.50;95892.00;;;;4969516;28;20195;-70
2022/04/25 10:06:32;;;;;;;0.60;0.50;;;17.80;70.70;19.60;95886.00;;;;4969561;28;20282;-70
2022/04/25 10:09:05;;;;;;;0.63;0.53;;;17.80;71.00;19.70;95894.00;;;;4961942;28;20218;-70
2022/04/25 10:11:36;;;;;;;1.00;0.90;;;17.90;70.90;19.80;95896.00;;;;4968976;28;20330;-70
2022/04/25 10:14:05;;;;;;;1.83;0.50;;;18.00;70.60;20.10;95894.00;;;;4970779;28;20200;-71
2022/04/25 10:16:35;;;;;;;0.63;0.40;;;18.10;70.40;20.30;95897.00;;;;4970447;28;20195;-72
2022/04/25 10:19:06;;;;;;;0.97;0.50;;;18.30;70.30;20.60;95879.00;;;;4971097;28;20220;-71
2022/04/25 10:21:37;;;;;;;0.40;0.30;;;18.60;68.80;20.20;95880.00;;;;4969705;28;20196;-70
2022/04/25 10:24:08;;;;;;;0.80;0.30;;;18.70;63.90;20.30;95887.00;;;;4970057;28;20226;-70
2022/04/25 10:26:37;;;;;;;0.60;0.37;;;18.80;65.60;21.10;95864.00;;;;4968704;28;20230;-70
2022/04/25 10:29:11;;;;;;;0.70;0.43;;;19.10;65.90;21.50;95885.00;;;;4968448;28;20302;-70
2022/04/25 10:31:43;;;;;;;1.20;0.50;;;19.40;66.00;21.20;95858.00;;;;4954741;28;20279;-70
2022/04/25 10:34:14;;;;;;;1.00;0.60;;;19.60;64.10;22.30;95860.00;;;;4970814;28;20203;-71
2022/04/25 10:36:48;;;;;;;0.40;0.30;;;20.00;65.70;23.10;95849.00;;;;4971016;28;20206;-70
2022/04/25 10:39:20;;;;;;;0.57;0.23;;;20.40;65.70;23.00;95857.00;;;;4970436;28;20214;-70
2022/04/25 10:45:00;;;;;;;0.97;0.40;;;21.10;63.00;23.20;95847.00;;;;4910050;29;20213;-71
2022/04/25 10:47:29;;;;;;;1.43;0.40;;;21.50;59.70;22.90;95881.00;;;;4942769;28;20254;-71
2022/04/25 10:50:10;;;;;;;1.73;0.80;;;21.70;59.70;22.60;95873.00;;;;4951669;28;20212;-70
2022/04/25 10:53:03;;;;;;;1.70;0.70;;;21.60;59.10;22.10;95871.00;;;;4968117;28;20227;-69
2022/04/25 10:55:49;;;;;;;0.50;0.40;;;21.30;59.80;24.20;95896.00;;;;4969557;28;20218;-70
2022/04/25 10:58:22;;;;;;;0.80;0.40;;;21.60;60.20;24.90;95854.00;;;;4966113;28;20277;-70
2022/04/25 11:00:56;;;;;;;1.80;0.60;;;22.20;60.90;24.80;95915.00;;;;4970617;28;20231;-72
2022/04/25 11:03:31;;;;;;;3.03;0.57;;;22.40;59.50;23.80;95869.00;;;;4971063;28;20226;-71
2022/04/25 11:06:04;;;;;;;0.90;0.30;;;22.40;58.50;23.60;95914.00;;;;4968589;28;20202;-70
2022/04/25 11:08:53;;;;;;;0.40;0.30;;;22.40;59.40;22.70;95913.00;;;;4969148;28;20306;-70
2022/04/25 11:11:25;;;;;;;0.63;0.30;;;22.10;57.30;22.80;95923.00;;;;4969671;28;20227;-70
2022/04/25 11:14:18;;;;;;;0.83;0.83;;;21.80;57.50;22.80;95927.00;;;;4960329;28;20238;-70
2022/04/25 11:17:07;;;;;;;0.53;0.40;;;21.60;57.70;22.70;95923.00;;;;4970349;28;20192;-70
2022/04/25 11:19:51;;;;;;;0.40;0.30;;;21.40;58.40;22.50;95928.00;;;;4966394;28;20263;-70
2022/04/25 11:22:51;;;;;;;0.47;0.43;;;21.30;57.70;22.30;95926.00;;;;4971168;28;20254;-70
2022/04/25 11:25:42;;;;;;;1.40;0.30;;;21.10;58.70;21.60;95846.00;;;;4973923;28;20223;-70
2022/04/25 11:28:14;;;;;;;0.30;0.20;;;20.90;58.00;22.90;95864.00;;;;4971068;28;20306;-70
2022/04/25 11:30:43;;;;;;;0.77;0.40;;;21.10;58.80;23.30;95903.00;;;;4967672;28;20509;-70
2022/04/25 11:33:13;;;;;;;0.40;0.30;;;21.30;58.80;23.00;95915.00;;;;4964535;28;20208;-70
2022/04/25 11:35:43;;;;;;;0.40;0.30;;;21.40;58.20;22.90;95870.00;;;;4969487;28;20282;-70
2022/04/25 11:38:12;;;;;;;0.93;0.40;;;21.70;57.30;23.80;95861.00;;;;4967214;28;20227;-70
2022/04/25 11:40:42;;;;;;;1.07;0.30;;;22.00;56.30;23.00;95861.00;;;;4972288;28;20215;-72
2022/04/25 11:43:11;;;;;;;0.20;0.20;;;22.30;53.80;24.70;95869.00;;;;4973957;28;20199;-72
2022/04/25 11:45:42;;;;;;;1.93;0.43;;;22.50;54.30;23.30;95930.00;;;;4972975;28;20226;-71
2022/04/25 11:48:15;;;;;;;0.50;0.33;;;22.50;54.80;24.00;95923.00;;;;4973134;28;20318;-71
2022/04/25 11:50:51;;;;;;;0.30;0.30;;;22.40;55.60;23.00;95920.00;;;;4973680;28;20223;-71